Etusivu
METAR-TAF:

METAR-TAF

Lentoasemat :

Hanoi, Vietnam

Noi Bain kansainvälinen lentoasema

Leveyspiiri: 21-01N, Pituuspiiri: 105-48E, korkeus merenpinnasta: 6 m

Tämänhetkinen sää

Tämä raportti tehtiin 32 minuuttia sitten, kello 09.30 UTC
Tuuli 2 kn eri suunnista
Lämpötila 26°C
Kosteus 54%
Ilmanpaine 1011 hPa
Näkyvyys 10 km tai enemmän
ei pilviä alle 1500 m:ssä eikä cumulonimbus-pilviä

METAR: VVNB 220930Z VRB02KT CAVOK 26/16 Q1011 NOSIG

Aika: 17:02 (10:02 UTC)

Sääennuste

Tämä raportti tehtiin 5 tuntia ja 2 minuuttia sitten, kello 05.00 UTC
Ennuste voimassa 22. päivästä klo 06 UTC - 23. päivään klo 06 UTC
Tuuli 7 kn idästä/koillisesta
Näkyvyys 10 km tai enemmän
Muutamia pilviä 1700 ft:n korkeudessa
Tulossa
22. päivästä klo 20 UTC - 22. päivään klo 21 UTC
Näkyvyys: 4000 m
utua
Tulossa
23. päivästä klo 00 UTC - 23. päivään klo 01 UTC
Näkyvyys: 6000 m

TAF: VVNB 220500Z 2206/2306 07007KT 9999 FEW017 BECMG 2220/2221 4000 BR BECMG 2300/2301 6000 NSW

Säähavainnot ja -ennusteet yli 4000 lentoasemalta (METAR- ja TAF-raportit).

Käytössä olevat sääasemat on merkitty karttaan keltaisilla ja punaisilla pisteillä.

Aseta hiiri pisteen päälle nähdäksesi sääaseman nimen.

Klikkaa sitten nähdäksesi säähavainnot ja -ennusteet.

Kartan vaihtaminen: klikkaa mustalla rastilla varustettuja vihreitä pisteitä, niin voit zoomata sisään; viivalla varustettua vihreää pistettä, niin voit zoomata ulos tai vihreitä nuolia, niin pääset viereisille kartoille.


METAR-TAF: